Time;durP1;ratioP1;P1;durP2;ratioP2;P2;SDS_P1;SDS_P2;PMS_P1;PMS_P2;Temp;Humidity;BMP_temperature;BMP_pressure;BME280_temperature;BME280_humidity;BME280_pressure;Samples;Min_cycle;Max_cycle;Signal;HPM_P1;HPM_P2
2023/01/26 00:01:19;;;;;;;13.85;1.00;;;;;;;18.45;45.74;101292.97;7388976;19;20026;-85
2023/01/26 00:03:46;;;;;;;5.03;0.57;;;;;;;18.10;45.88;101315.56;7389178;19;20025;-85
2023/01/26 00:06:15;;;;;;;0.77;0.50;;;;;;;17.71;46.43;101307.84;7389271;19;20018;-85
2023/01/26 00:08:43;;;;;;;0.68;0.35;;;;;;;17.93;45.87;101308.94;7392186;19;20033;-85
2023/01/26 00:11:12;;;;;;;4.03;0.55;;;;;;;17.77;45.61;101314.34;7391937;19;20515;-84
2023/01/26 00:13:39;;;;;;;0.60;0.60;;;;;;;17.66;45.90;101305.72;7391857;19;20033;-84
2023/01/26 00:16:09;;;;;;;1.05;0.95;;;;;;;17.39;45.95;101309.63;7389408;19;20056;-85
2023/01/26 00:18:37;;;;;;;0.60;0.60;;;;;;;17.66;45.46;101295.22;7389022;19;20031;-85
2023/01/26 00:21:11;;;;;;;2.80;0.75;;;;;;;17.89;45.57;101290.69;7392829;19;20041;-85
2023/01/26 00:23:40;;;;;;;0.20;0.20;;;;;;;17.65;45.51;101293.66;7390766;19;20081;-85
2023/01/26 00:26:13;;;;;;;0.63;0.63;;;;;;;17.74;45.65;101299.19;7391602;19;20023;-86
2023/01/26 00:28:40;;;;;;;0.90;0.75;;;;;;;17.59;45.83;101311.75;7397534;19;20015;-86
2023/01/26 00:31:10;;;;;;;5.45;0.80;;;;;;;17.25;45.66;101307.59;7397632;19;20010;-86
2023/01/26 00:33:39;;;;;;;1.02;0.95;;;;;;;17.40;45.64;101305.53;7397258;19;20815;-86
2023/01/26 00:36:06;;;;;;;0.15;0.15;;;;;;;17.50;45.41;101312.63;7398320;19;20109;-86
2023/01/26 00:38:33;;;;;;;7.97;1.38;;;;;;;17.11;45.66;101300.72;7396498;19;20355;-86
2023/01/26 00:41:01;;;;;;;2.45;0.82;;;;;;;17.24;45.62;101300.41;7398414;19;20070;-85
2023/01/26 00:43:27;;;;;;;0.95;0.43;;;;;;;17.28;45.64;101309.47;7396668;19;20044;-85
2023/01/26 00:45:53;;;;;;;1.38;0.47;;;;;;;17.23;45.99;101318.56;7395806;19;20018;-84
2023/01/26 00:48:19;;;;;;;0.68;0.68;;;;;;;17.18;45.81;101305.94;7396191;19;20047;-86
2023/01/26 00:50:45;;;;;;;0.43;0.32;;;;;;;17.34;46.15;101305.47;7399212;19;20015;-88
2023/01/26 00:53:12;;;;;;;0.55;0.52;;;;;;;16.98;46.39;101299.47;7397782;19;20403;-87
2023/01/26 00:55:38;;;;;;;0.85;0.57;;;;;;;16.03;48.29;101301.63;7397592;19;20022;-86
2023/01/26 00:58:06;;;;;;;0.20;0.10;;;;;;;16.73;46.82;101308.44;7397116;19;20019;-86
2023/01/26 01:00:35;;;;;;;9.32;1.27;;;;;;;17.15;46.42;101303.34;7396721;19;20058;-86
2023/01/26 01:03:01;;;;;;;6.47;1.25;;;;;;;17.17;46.34;101303.63;7393718;19;20492;-86
2023/01/26 01:05:30;;;;;;;1.50;0.55;;;;;;;17.44;45.53;101301.28;7396736;19;20018;-87
2023/01/26 01:07:57;;;;;;;1.33;1.23;;;;;;;16.52;47.04;101308.31;7395387;19;20452;-85
2023/01/26 01:10:26;;;;;;;2.90;0.95;;;;;;;17.00;46.21;101299.75;7398983;19;20085;-86
2023/01/26 01:12:53;;;;;;;4.22;2.17;;;;;;;16.81;46.46;101304.78;7397731;19;20015;-86
2023/01/26 01:15:19;;;;;;;0.63;0.47;;;;;;;17.45;45.92;101307.69;7398914;19;20380;-86
2023/01/26 01:17:45;;;;;;;0.30;0.30;;;;;;;17.30;45.68;101301.28;7398247;19;20722;-85
2023/01/26 01:20:11;;;;;;;0.32;0.30;;;;;;;17.09;45.64;101303.22;7395258;19;20010;-86
2023/01/26 01:22:40;;;;;;;0.30;0.20;;;;;;;17.74;44.87;101295.59;7399009;19;20022;-86
2023/01/26 01:25:07;;;;;;;0.57;0.50;;;;;;;17.67;45.13;101296.00;7394336;19;20014;-86
2023/01/26 01:27:33;;;;;;;0.57;0.57;;;;;;;17.59;45.14;101295.63;7395197;19;20022;-86
2023/01/26 01:29:59;;;;;;;1.73;1.00;;;;;;;17.58;44.93;101291.28;7393841;19;20082;-87
2023/01/26 01:32:25;;;;;;;0.20;0.20;;;;;;;18.38;44.09;101298.25;7397419;19;20010;-86
2023/01/26 01:34:51;;;;;;;0.10;0.10;;;;;;;18.11;44.12;101291.75;7394942;19;20014;-86
2023/01/26 01:37:17;;;;;;;0.10;0.10;;;;;;;18.42;43.66;101291.13;7395403;19;20018;-85
2023/01/26 01:39:44;;;;;;;0.15;0.15;;;;;;;17.89;43.94;101297.09;7394606;19;20014;-86
2023/01/26 01:42:10;;;;;;;0.22;0.22;;;;;;;17.55;45.08;101297.88;7396470;19;20017;-86
2023/01/26 01:44:37;;;;;;;0.10;0.10;;;;;;;18.18;44.28;101294.16;7396204;19;20027;-85
2023/01/26 01:47:22;;;;;;;0.17;0.17;;;;;;;18.86;43.41;101296.50;7396818;19;20052;-85
2023/01/26 01:49:51;;;;;;;2.67;0.28;;;;;;;17.98;44.37;101304.66;7394711;19;20070;-85
2023/01/26 01:52:26;;;;;;;1.05;0.40;;;;;;;17.54;45.20;101304.78;7395737;19;20049;-86
2023/01/26 01:55:06;;;;;;;8.02;1.55;;;;;;;17.98;44.57;101305.44;7395674;19;20014;-86
2023/01/26 01:57:43;;;;;;;0.30;0.30;;;;;;;18.74;43.58;101303.28;7395921;19;20022;-86
2023/01/26 02:00:12;;;;;;;0.20;0.20;;;;;;;18.37;43.62;101302.31;7393135;19;20021;-86
2023/01/26 02:02:40;;;;;;;0.22;0.22;;;;;;;18.14;43.77;101299.25;7398449;19;20010;-86
2023/01/26 02:05:14;;;;;;;0.22;0.22;;;;;;;18.96;42.81;101306.34;7394522;19;20017;-86
2023/01/26 02:07:40;;;;;;;0.85;0.60;;;;;;;19.28;42.13;101307.94;7393321;19;20011;-86
2023/01/26 02:10:17;;;;;;;0.90;0.85;;;;;;;19.17;42.29;101315.50;7394956;19;20014;-86
2023/01/26 02:12:46;;;;;;;0.45;0.38;;;;;;;18.73;42.52;101321.53;7396601;19;20014;-86
2023/01/26 02:15:12;;;;;;;0.20;0.20;;;;;;;18.69;42.64;101330.19;7394000;19;20034;-86
2023/01/26 02:17:39;;;;;;;0.10;0.00;;;;;;;19.10;41.86;101325.22;7394972;19;20039;-86
2023/01/26 02:20:27;;;;;;;0.35;0.30;;;;;;;18.93;41.65;101321.44;7392750;19;20385;-85
2023/01/26 02:23:06;;;;;;;0.10;0.10;;;;;;;18.96;42.14;101312.00;7394652;19;20041;-85
2023/01/26 02:25:56;;;;;;;1.88;0.65;;;;;;;19.74;40.32;101321.16;7394417;19;20014;-85
2023/01/26 02:28:26;;;;;;;0.20;0.20;;;;;;;19.40;40.55;101318.09;7395387;19;20356;-85
2023/01/26 02:30:55;;;;;;;3.00;0.87;;;;;;;20.54;39.12;101314.91;7393021;19;20023;-86
2023/01/26 02:33:27;;;;;;;0.10;0.10;;;;;;;17.68;41.58;101315.25;7393753;19;20784;-86
2023/01/26 02:35:58;;;;;;;0.70;0.32;;;;;;;18.11;42.55;101302.25;7393738;19;20010;-85
2023/01/26 02:38:29;;;;;;;0.73;0.73;;;;;;;17.21;41.58;101315.47;7393927;19;20068;-85
2023/01/26 02:41:08;;;;;;;0.52;0.45;;;;;;;18.99;41.06;101318.69;7394637;19;20019;-85
2023/01/26 02:43:34;;;;;;;0.22;0.22;;;;;;;18.82;41.26;101318.50;7393241;19;20022;-85
2023/01/26 02:46:03;;;;;;;0.38;0.38;;;;;;;18.34;42.20;101320.25;7393007;19;20022;-84
2023/01/26 02:51:14;;;;;;;0.30;0.30;;;;;;;8.91;58.16;101349.88;7391425;19;20042;-86
2023/01/26 02:53:40;;;;;;;0.17;0.17;;;;;;;8.89;71.67;101345.97;7391320;19;20010;-85
2023/01/26 02:56:07;;;;;;;0.47;0.47;;;;;;;12.80;68.84;101346.03;7394858;19;20017;-86
2023/01/26 02:58:33;;;;;;;2.28;0.43;;;;;;;5.04;96.06;101371.22;7394294;19;20070;-86
2023/01/26 03:00:59;;;;;;;0.30;0.30;;;;;;;2.54;100.00;101388.28;7395654;19;20772;-86
2023/01/26 03:03:40;;;;;;;1.17;0.38;;;;;;;1.73;100.00;101392.38;7393842;19;20082;-86
2023/01/26 03:06:11;;;;;;;6.68;0.82;;;;;;;1.49;100.00;101372.50;7394145;19;20086;-86
2023/01/26 03:08:38;;;;;;;7.23;0.77;;;;;;;1.33;100.00;101363.75;7392111;19;20022;-85
2023/01/26 03:11:06;;;;;;;0.10;0.10;;;;;;;1.22;100.00;101362.84;7393932;19;20015;-85
2023/01/26 03:13:33;;;;;;;0.85;0.77;;;;;;;1.02;100.00;101363.38;7395217;19;20015;-86
2023/01/26 03:16:05;;;;;;;0.90;0.63;;;;;;;0.84;100.00;101367.84;7393837;19;20025;-86
2023/01/26 03:29:40;;;;;;;0.20;0.20;;;;;;;2.19;100.00;101388.03;7391793;19;20018;-86
2023/01/26 03:32:06;;;;;;;0.52;0.25;;;;;;;2.04;100.00;101384.41;7395349;19;20022;-85
2023/01/26 03:34:33;;;;;;;4.90;1.23;;;;;;;1.30;100.00;101391.91;7393334;19;20007;-86
2023/01/26 03:36:59;;;;;;;0.57;0.57;;;;;;;2.18;100.00;101380.97;7392509;19;20370;-85
2023/01/26 03:56:22;;;;;;;0.13;0.13;;;;;;;15.41;66.20;101366.03;7391931;19;20007;-85
2023/01/26 03:58:53;;;;;;;0.10;0.10;;;;;;;14.92;65.65;101369.84;7392353;19;20014;-86
2023/01/26 04:01:26;;;;;;;;;;;;;;;16.17;61.51;101377.59;7396530;19;20014;-85
2023/01/26 04:09:30;;;;;;;0.10;0.10;;;;;;;16.04;58.80;101396.72;7397333;19;20022;-85
2023/01/26 04:11:57;;;;;;;0.10;0.10;;;;;;;16.25;58.21;101395.66;7398075;19;20010;-86
2023/01/26 04:22:43;;;;;;;4.75;0.55;;;;;;;15.70;58.27;101385.94;7402465;19;20035;-86
2023/01/26 04:25:12;;;;;;;0.30;0.30;;;;;;;15.64;58.48;101376.56;7397927;19;20018;-86
2023/01/26 04:27:40;;;;;;;0.30;0.30;;;;;;;15.54;58.51;101383.47;7398649;19;20017;-86
2023/01/26 04:30:08;;;;;;;2.65;0.55;;;;;;;10.32;64.79;101395.97;7398253;19;20018;-86
2023/01/26 04:32:35;;;;;;;21.27;1.10;;;;;;;12.27;90.25;101403.00;7399635;19;20010;-86
2023/01/26 04:35:01;;;;;;;0.35;0.35;;;;;;;14.83;67.21;101386.69;7398340;19;20014;-85
2023/01/26 04:37:30;;;;;;;0.40;0.40;;;;;;;14.91;64.88;101382.31;7397352;19;20022;-85
2023/01/26 04:39:57;;;;;;;0.52;0.52;;;;;;;15.25;63.49;101394.44;7397153;19;20060;-85
2023/01/26 04:42:24;;;;;;;0.20;0.20;;;;;;;15.27;62.14;101389.16;7398455;19;20010;-86
2023/01/26 04:44:51;;;;;;;0.30;0.30;;;;;;;15.28;61.63;101399.91;7398283;19;20464;-85
2023/01/26 04:47:18;;;;;;;0.40;0.40;;;;;;;15.20;61.82;101391.00;7398036;19;20011;-86
2023/01/26 04:49:45;;;;;;;2.05;0.57;;;;;;;15.01;61.79;101400.69;7398299;19;20010;-85
2023/01/26 04:52:14;;;;;;;0.40;0.15;;;;;;;15.85;60.41;101395.25;7397412;19;20019;-86
2023/01/26 04:54:40;;;;;;;0.20;0.20;;;;;;;16.08;59.27;101396.53;7395940;19;20066;-85
2023/01/26 04:57:07;;;;;;;0.75;0.52;;;;;;;16.31;58.63;101401.38;7396492;19;20034;-86
2023/01/26 04:59:34;;;;;;;0.13;0.13;;;;;;;16.11;58.54;101392.78;7396014;19;20026;-86
2023/01/26 05:02:02;;;;;;;0.38;0.30;;;;;;;16.72;57.08;101392.06;7397365;19;20019;-86
2023/01/26 05:04:28;;;;;;;0.38;0.38;;;;;;;15.50;58.69;101396.91;7397230;19;20062;-86
2023/01/26 05:06:54;;;;;;;0.35;0.35;;;;;;;16.46;57.12;101396.59;7397862;19;20074;-87
2023/01/26 05:09:23;;;;;;;0.40;0.40;;;;;;;16.44;57.06;101402.72;7397032;19;20382;-86
2023/01/26 05:15:11;;;;;;;0.82;0.57;;;;;;;15.23;60.85;101405.34;7398885;19;20007;-86
2023/01/26 05:17:59;;;;;;;15.98;0.70;;;;;;;15.97;58.84;101411.09;7397112;19;20043;-86
2023/01/26 05:20:46;;;;;;;0.32;0.32;;;;;;;17.06;56.98;101399.94;7395424;19;20019;-86
2023/01/26 05:23:18;;;;;;;1.35;0.90;;;;;;;16.37;57.48;101399.50;7395618;19;20130;-87
2023/01/26 05:26:09;;;;;;;2.83;1.25;;;;;;;16.25;58.21;101404.09;7394294;19;20007;-86
2023/01/26 05:28:53;;;;;;;1.48;0.90;;;;;;;15.06;61.15;101400.09;7393743;19;20014;-87
2023/01/26 05:31:20;;;;;;;0.20;0.20;;;;;;;15.06;67.40;101411.31;7396520;19;20014;-85
2023/01/26 05:33:46;;;;;;;0.40;0.40;;;;;;;17.39;57.56;101411.78;7396450;19;20019;-86
2023/01/26 05:36:18;;;;;;;0.85;0.30;;;;;;;16.78;57.63;101418.31;7396095;19;20018;-86
2023/01/26 05:38:44;;;;;;;0.10;0.10;;;;;;;16.83;57.58;101422.50;7395552;19;20019;-86
2023/01/26 05:41:11;;;;;;;1.20;0.43;;;;;;;17.18;56.85;101417.78;7398795;19;20695;-85
2023/01/26 05:43:55;;;;;;;1.27;1.10;;;;;;;16.81;56.87;101416.53;7397185;19;20011;-86
2023/01/26 05:46:34;;;;;;;1.67;0.80;;;;;;;17.19;56.46;101427.81;7397339;19;20018;-86
2023/01/26 05:49:01;;;;;;;1.20;0.60;;;;;;;16.55;57.53;101427.50;7395197;19;20015;-86
2023/01/26 05:51:28;;;;;;;2.45;0.73;;;;;;;16.72;57.31;101437.09;7397427;19;20014;-86
2023/01/26 05:53:54;;;;;;;1.05;0.88;;;;;;;17.01;56.76;101444.84;7397164;19;20007;-86
2023/01/26 05:56:20;;;;;;;0.63;0.47;;;;;;;17.42;55.51;101446.66;7397062;19;20548;-86
2023/01/26 05:58:52;;;;;;;2.78;0.40;;;;;;;17.53;55.36;101443.28;7396582;19;20018;-86
2023/01/26 06:01:18;;;;;;;0.75;0.75;;;;;;;17.97;54.85;101439.19;7396653;19;20021;-85
2023/01/26 06:03:50;;;;;;;11.30;1.67;;;;;;;17.74;54.98;101444.94;7395967;19;20066;-86
2023/01/26 06:06:16;;;;;;;6.70;0.45;;;;;;;17.77;55.13;101443.97;7394173;19;20073;-85
2023/01/26 06:08:50;;;;;;;0.10;0.00;;;;;;;17.70;55.10;101441.53;7393857;19;20010;-85
2023/01/26 06:11:32;;;;;;;0.52;0.52;;;;;;;16.54;58.56;101454.88;7397366;19;20021;-90
2023/01/26 06:14:07;;;;;;;0.45;0.35;;;;;;;17.29;56.70;101457.41;7396094;19;20029;-86
2023/01/26 06:16:33;;;;;;;1.13;0.35;;;;;;;17.47;55.66;101446.00;7394185;19;20088;-84
2023/01/26 06:19:00;;;;;;;0.90;0.65;;;;;;;17.36;55.50;101462.69;7392468;19;20074;-86
2023/01/26 06:21:26;;;;;;;2.10;0.52;;;;;;;17.08;55.84;101458.56;7395566;19;20465;-85
2023/01/26 06:23:53;;;;;;;1.10;0.80;;;;;;;16.99;56.30;101464.25;7388264;19;20021;-85
2023/01/26 06:26:19;;;;;;;1.23;0.65;;;;;;;17.07;56.07;101449.31;7393463;19;20057;-85
2023/01/26 06:28:45;;;;;;;0.20;0.20;;;;;;;16.96;56.18;101454.72;7390620;19;20769;-85
2023/01/26 06:31:13;;;;;;;0.57;0.57;;;;;;;16.85;56.17;101450.94;7393177;19;20456;-84
2023/01/26 06:33:40;;;;;;;0.20;0.20;;;;;;;17.11;55.70;101457.56;7391299;19;20014;-84
2023/01/26 06:36:10;;;;;;;2.85;0.80;;;;;;;17.08;55.75;101461.38;7390469;19;20109;-85
2023/01/26 06:38:37;;;;;;;0.30;0.30;;;;;;;17.02;55.70;101455.59;7388365;19;20092;-85
2023/01/26 06:41:06;;;;;;;0.73;0.30;;;;;;;17.07;55.78;101456.97;7388769;19;20086;-85
2023/01/26 06:43:34;;;;;;;5.78;1.08;;;;;;;17.03;56.12;101457.19;7382040;19;20025;-85
2023/01/26 06:46:02;;;;;;;0.28;0.20;;;;;;;16.97;56.24;101459.09;7382096;19;20277;-85
2023/01/26 06:48:31;;;;;;;0.93;0.88;;;;;;;16.88;56.32;101455.56;7380121;19;20078;-85
2023/01/26 06:51:15;;;;;;;0.28;0.28;;;;;;;16.72;56.87;101447.59;7383381;19;20013;-84
2023/01/26 06:53:46;;;;;;;0.82;0.82;;;;;;;16.75;57.02;101443.78;7383955;19;20052;-85
2023/01/26 06:56:34;;;;;;;0.32;0.22;;;;;;;16.93;56.38;101455.72;7385707;19;20014;-86
2023/01/26 06:59:19;;;;;;;21.92;2.05;;;;;;;16.90;56.37;101453.06;7385978;19;20015;-85
2023/01/26 07:02:16;;;;;;;3.95;2.50;;;;;;;16.85;56.97;101459.38;7389122;19;20014;-85
2023/01/26 07:04:42;;;;;;;1.75;0.70;;;;;;;16.88;56.75;101466.84;7387047;19;20010;-85
2023/01/26 07:07:08;;;;;;;0.30;0.30;;;;;;;17.03;56.14;101456.41;7387900;19;20018;-85
2023/01/26 07:09:34;;;;;;;0.75;0.38;;;;;;;17.21;55.85;101454.22;7386854;19;20022;-84
2023/01/26 07:12:00;;;;;;;5.97;0.70;;;;;;;17.17;56.10;101456.41;7386380;19;20385;-84
2023/01/26 07:14:26;;;;;;;4.28;1.15;;;;;;;17.13;56.10;101466.34;7386595;19;20014;-85
2023/01/26 07:16:52;;;;;;;16.33;3.40;;;;;;;17.01;56.49;101458.91;7385066;19;20468;-85
2023/01/26 07:19:18;;;;;;;9.52;1.95;;;;;;;17.07;56.44;101459.78;7387272;19;20022;-84
2023/01/26 07:21:45;;;;;;;2.03;1.83;;;;;;;16.98;56.34;101463.47;7387147;19;20483;-84
2023/01/26 07:24:11;;;;;;;8.95;2.05;;;;;;;17.03;56.47;101468.44;7387713;19;20030;-84
2023/01/26 07:26:37;;;;;;;5.18;2.38;;;;;;;16.96;56.03;101468.78;7385722;19;20476;-85
2023/01/26 07:29:03;;;;;;;0.90;0.88;;;;;;;16.84;56.53;101469.84;7387331;19;20442;-85
2023/01/26 07:31:29;;;;;;;2.83;1.40;;;;;;;16.95;55.95;101472.09;7386877;19;20018;-84
2023/01/26 07:33:56;;;;;;;0.45;0.45;;;;;;;17.08;55.57;101478.25;7386155;19;20029;-84
2023/01/26 07:36:22;;;;;;;1.15;1.05;;;;;;;17.04;55.23;101478.44;7385068;19;20022;-84
2023/01/26 07:38:48;;;;;;;9.10;1.15;;;;;;;17.20;55.46;101480.03;7384729;19;20019;-85
2023/01/26 07:41:14;;;;;;;1.60;1.27;;;;;;;17.13;55.16;101477.59;7387914;19;20346;-84
2023/01/26 07:43:41;;;;;;;0.10;0.10;;;;;;;17.15;55.37;101486.34;7386892;19;20041;-84
2023/01/26 07:46:11;;;;;;;0.10;0.00;;;;;;;17.16;55.34;101487.88;7385706;19;20014;-84
2023/01/26 07:48:37;;;;;;;0.35;0.35;;;;;;;17.15;55.79;101494.78;7390597;19;20019;-84
2023/01/26 07:51:04;;;;;;;0.10;0.10;;;;;;;17.42;55.42;101494.53;7385837;19;20018;-84
2023/01/26 07:53:32;;;;;;;0.55;0.30;;;;;;;17.80;54.97;101511.41;7386160;19;20015;-85
2023/01/26 07:56:07;;;;;;;1.42;1.17;;;;;;;17.99;54.15;101514.81;7383986;19;20027;-84
2023/01/26 07:58:35;;;;;;;0.10;0.10;;;;;;;17.98;53.91;101497.13;7383286;19;20029;-83
2023/01/26 08:01:08;;;;;;;0.35;0.35;;;;;;;18.04;54.06;101500.06;7385741;19;20046;-84
2023/01/26 08:03:34;;;;;;;3.30;0.30;;;;;;;18.37;53.51;101502.59;7385218;19;20019;-83
2023/01/26 08:06:01;;;;;;;0.10;0.10;;;;;;;18.61;52.93;101503.25;7384954;19;20381;-84
2023/01/26 08:08:27;;;;;;;1.17;0.20;;;;;;;17.64;55.06;101500.63;7386484;19;20018;-83
2023/01/26 08:10:59;;;;;;;1.20;0.20;;;;;;;18.38;53.57;101495.69;7385787;19;20027;-84
2023/01/26 08:13:26;;;;;;;0.10;0.10;;;;;;;18.65;53.06;101498.16;7391949;19;20022;-84
2023/01/26 08:15:53;;;;;;;0.10;0.00;;;;;;;18.48;52.96;101502.81;7392081;19;20015;-84
2023/01/26 08:18:20;;;;;;;0.25;0.25;;;;;;;18.33;53.54;101510.50;7389583;19;20019;-84
2023/01/26 08:20:53;;;;;;;0.38;0.30;;;;;;;18.88;52.78;101503.63;7388994;19;20011;-83
2023/01/26 08:23:19;;;;;;;2.90;0.70;;;;;;;18.93;52.05;101507.78;7390699;19;20010;-83
2023/01/26 08:25:46;;;;;;;0.10;0.10;;;;;;;19.81;50.96;101508.06;7387045;19;20022;-84
2023/01/26 08:28:13;;;;;;;0.40;0.22;;;;;;;19.76;50.55;101514.44;7385461;19;20045;-82
2023/01/26 08:30:39;;;;;;;0.45;0.45;;;;;;;19.74;50.52;101519.81;7385017;19;20105;-83
2023/01/26 08:33:06;;;;;;;0.47;0.40;;;;;;;19.73;50.17;101517.50;7388209;19;20551;-83
2023/01/26 08:35:33;;;;;;;0.10;0.10;;;;;;;19.76;50.02;101510.81;7386899;19;20006;-83
2023/01/26 08:38:00;;;;;;;0.20;0.20;;;;;;;19.80;50.22;101505.72;7385772;19;20022;-82
2023/01/26 08:40:26;;;;;;;0.22;0.22;;;;;;;19.68;50.15;101505.59;7386599;19;20021;-84
2023/01/26 08:42:53;;;;;;;0.47;0.45;;;;;;;19.62;50.34;101504.78;7390282;19;20019;-84
2023/01/26 08:45:19;;;;;;;0.10;0.10;;;;;;;19.82;49.87;101520.13;7383869;19;20027;-84
2023/01/26 08:47:49;;;;;;;0.10;0.00;;;;;;;19.75;50.02;101520.59;7386988;19;20022;-83
2023/01/26 08:50:15;;;;;;;0.40;0.40;;;;;;;19.89;49.87;101519.69;7392378;19;20022;-84
2023/01/26 08:52:41;;;;;;;1.38;0.28;;;;;;;19.66;49.98;101530.03;7397883;19;20030;-84
2023/01/26 08:55:08;;;;;;;15.65;1.05;;;;;;;19.89;49.90;101526.13;7393128;19;20025;-85
2023/01/26 08:57:34;;;;;;;0.20;0.20;;;;;;;19.65;49.84;101514.31;7391958;19;20015;-83
2023/01/26 09:00:00;;;;;;;0.10;0.10;;;;;;;19.57;50.07;101519.66;7390857;19;20018;-82
2023/01/26 09:02:27;;;;;;;0.10;0.10;;;;;;;19.36;50.48;101523.00;7394395;19;20014;-83
2023/01/26 09:04:53;;;;;;;0.20;0.10;;;;;;;19.23;50.32;101520.50;7393411;19;20374;-83
2023/01/26 09:07:19;;;;;;;1.65;0.25;;;;;;;19.14;50.39;101525.53;7390132;19;20682;-83
2023/01/26 09:09:45;;;;;;;0.30;0.30;;;;;;;19.05;50.35;101534.91;7393179;19;20603;-84
2023/01/26 09:12:12;;;;;;;0.40;0.32;;;;;;;19.03;50.49;101534.66;7392817;19;20353;-84
2023/01/26 09:14:38;;;;;;;1.38;0.70;;;;;;;19.23;50.21;101533.88;7393848;19;20079;-83
2023/01/26 09:17:04;;;;;;;0.20;0.20;;;;;;;19.07;50.18;101538.03;7390592;19;20476;-84
2023/01/26 09:19:30;;;;;;;1.27;1.20;;;;;;;19.12;50.19;101545.81;7390496;19;20014;-83
2023/01/26 09:21:56;;;;;;;0.10;0.05;;;;;;;19.50;50.23;101544.72;7392997;19;20014;-83
2023/01/26 09:24:23;;;;;;;0.10;0.10;;;;;;;19.54;49.80;101551.72;7389046;19;20412;-84
2023/01/26 09:26:49;;;;;;;0.10;0.10;;;;;;;19.58;49.59;101551.50;7384122;19;20011;-85
2023/01/26 09:29:15;;;;;;;0.75;0.20;;;;;;;19.97;48.89;101537.75;7389750;19;20035;-87
2023/01/26 09:31:42;;;;;;;1.13;0.30;;;;;;;19.99;48.39;101547.28;7387869;19;20029;-86
2023/01/26 09:34:08;;;;;;;2.63;0.85;;;;;;;19.56;49.01;101545.56;7388424;19;20029;-86
2023/01/26 09:36:34;;;;;;;0.10;0.10;;;;;;;19.31;49.35;101549.91;7388144;19;20014;-85
2023/01/26 09:39:00;;;;;;;0.50;0.47;;;;;;;18.83;49.81;101546.69;7390297;19;20035;-86
2023/01/26 09:42:08;;;;;;;1.50;0.35;;;;;;;19.30;49.46;101547.53;7390118;19;20026;-86
2023/01/26 09:44:47;;;;;;;0.35;0.20;;;;;;;20.41;47.96;101549.50;7386055;19;20043;-83
2023/01/26 09:47:20;;;;;;;0.10;0.10;;;;;;;20.47;47.74;101541.81;7388313;19;20089;-84
2023/01/26 09:49:55;;;;;;;0.32;0.30;;;;;;;19.47;49.21;101548.53;7388071;19;20610;-85
2023/01/26 09:52:57;;;;;;;0.17;0.15;;;;;;;19.49;49.33;101549.59;7389936;19;20483;-86
2023/01/26 09:55:24;;;;;;;0.82;0.35;;;;;;;19.58;49.27;101549.47;7386092;19;20110;-85
2023/01/26 09:57:58;;;;;;;0.20;0.10;;;;;;;20.23;48.41;101544.19;7387702;19;20468;-85
2023/01/26 10:00:51;;;;;;;3.05;0.45;;;;;;;20.38;47.72;101544.81;7391929;19;20376;-85
2023/01/26 10:03:28;;;;;;;0.10;0.10;;;;;;;20.30;48.28;101549.41;7387162;19;20022;-85
2023/01/26 10:06:02;;;;;;;2.28;0.75;;;;;;;20.87;47.21;101544.41;7387383;19;20025;-86
2023/01/26 10:08:48;;;;;;;0.10;0.10;;;;;;;20.97;46.88;101551.41;7391722;19;20070;-86
2023/01/26 10:11:15;;;;;;;0.40;0.40;;;;;;;20.73;47.24;101553.84;7388429;19;20014;-83
2023/01/26 10:13:49;;;;;;;0.20;0.15;;;;;;;20.64;47.00;101551.19;7391359;19;20448;-83
2023/01/26 10:16:16;;;;;;;5.82;0.65;;;;;;;20.95;47.05;101545.47;7388548;19;20595;-83
2023/01/26 10:19:12;;;;;;;0.85;0.52;;;;;;;20.08;48.27;101549.19;7384878;19;20118;-90
2023/01/26 10:21:44;;;;;;;0.40;0.40;;;;;;;20.33;47.89;101556.91;7389832;19;20029;-87
2023/01/26 10:24:12;;;;;;;1.40;1.05;;;;;;;20.25;47.94;101569.94;7388486;19;20018;-87
2023/01/26 10:26:38;;;;;;;0.10;0.10;;;;;;;20.45;47.82;101567.00;7388998;19;20064;-90
2023/01/26 10:29:04;;;;;;;0.45;0.45;;;;;;;20.76;47.16;101567.00;7390396;19;20062;-85
2023/01/26 10:31:32;;;;;;;0.85;0.85;;;;;;;21.34;46.37;101568.34;7388357;19;20022;-86
2023/01/26 10:34:11;;;;;;;8.48;0.82;;;;;;;20.98;46.67;101569.97;7389779;19;20501;-86
2023/01/26 10:36:39;;;;;;;0.52;0.52;;;;;;;21.52;45.73;101567.91;7388037;19;20025;-89
2023/01/26 10:39:14;;;;;;;0.32;0.20;;;;;;;21.44;45.56;101571.75;7386004;19;20697;-85
2023/01/26 10:41:54;;;;;;;0.10;0.10;;;;;;;20.59;46.50;101566.09;7392821;19;20086;-88
2023/01/26 10:44:30;;;;;;;0.30;0.20;;;;;;;20.46;46.83;101579.91;7389505;19;20020;-88
2023/01/26 10:47:17;;;;;;;6.40;1.15;;;;;;;20.58;46.98;101580.75;7390591;19;20054;-88
2023/01/26 10:49:44;;;;;;;0.10;0.10;;;;;;;21.24;45.77;101574.75;7389066;19;20136;-88
2023/01/26 10:52:21;;;;;;;0.75;0.75;;;;;;;20.84;46.29;101576.56;7389638;19;20081;-87
2023/01/26 10:54:50;;;;;;;4.55;0.35;;;;;;;21.22;46.08;101588.66;7389335;19;20014;-87
2023/01/26 10:57:27;;;;;;;0.52;0.52;;;;;;;21.60;45.59;101585.19;7388657;19;20018;-89
2023/01/26 11:00:07;;;;;;;2.60;1.25;;;;;;;21.80;45.29;101576.50;7388272;19;20022;-89
2023/01/26 11:02:35;;;;;;;0.35;0.30;;;;;;;21.80;45.30;101579.34;7393699;19;20018;-88
2023/01/26 11:05:07;;;;;;;1.33;0.80;;;;;;;22.10;45.27;101576.81;7396733;19;20014;-89
2023/01/26 11:07:39;;;;;;;27.05;2.60;;;;;;;22.00;45.02;101581.19;7394888;19;20386;-88
2023/01/26 11:10:16;;;;;;;7.85;1.85;;;;;;;21.71;45.42;101585.22;7396214;19;20015;-87
2023/01/26 11:12:43;;;;;;;5.20;1.05;;;;;;;22.12;44.91;101583.53;7399294;19;20070;-88
2023/01/26 11:15:21;;;;;;;16.40;3.33;;;;;;;22.11;44.84;101572.72;7395117;19;20082;-88
2023/01/26 11:18:00;;;;;;;14.15;3.83;;;;;;;22.20;44.86;101578.88;7395519;19;20051;-87
2023/01/26 11:20:43;;;;;;;8.40;1.48;;;;;;;22.31;45.05;101581.75;7392262;19;20007;-87
2023/01/26 11:23:33;;;;;;;14.98;2.17;;;;;;;22.15;45.05;101584.56;7393490;19;20074;-87
2023/01/26 11:26:12;;;;;;;12.45;2.55;;;;;;;21.97;45.84;101583.00;7394553;19;20019;-86
2023/01/26 11:29:09;;;;;;;2.90;1.20;;;;;;;22.20;46.02;101578.88;7393488;19;20011;-87
2023/01/26 11:32:03;;;;;;;7.53;2.13;;;;;;;21.58;46.68;101570.75;7393854;19;20014;-85
2023/01/26 11:34:48;;;;;;;4.85;1.30;;;;;;;21.30;49.21;101569.88;7391920;19;20038;-86
2023/01/26 11:37:20;;;;;;;13.50;1.65;;;;;;;22.19;48.48;101563.16;7392797;19;20022;-85
2023/01/26 11:40:03;;;;;;;1.45;1.17;;;;;;;21.03;50.05;101569.22;7394347;19;20025;-87
2023/01/26 11:42:39;;;;;;;2.42;0.70;;;;;;;23.08;47.27;101563.84;7397489;19;20018;-87
2023/01/26 11:45:24;;;;;;;2.47;0.43;;;;;;;23.08;47.19;101563.84;7394529;19;20015;-86
2023/01/26 11:48:05;;;;;;;5.68;1.42;;;;;;;22.82;46.75;101569.09;7394341;19;20034;-87
2023/01/26 11:50:53;;;;;;;6.07;2.10;;;;;;;22.54;46.57;101569.06;7393042;19;20022;-88
2023/01/26 11:53:30;;;;;;;1.95;0.40;;;;;;;22.24;47.05;101565.22;7391864;19;20022;-88
2023/01/26 11:56:02;;;;;;;0.47;0.40;;;;;;;22.44;46.74;101564.97;7394074;19;20015;-87
2023/01/26 11:58:41;;;;;;;4.82;1.33;;;;;;;22.05;47.09;101569.84;7394586;19;20015;-88
2023/01/26 12:01:24;;;;;;;1.85;0.63;;;;;;;21.53;47.57;101565.81;7393993;19;20022;-89
2023/01/26 12:03:51;;;;;;;8.48;0.95;;;;;;;21.50;47.73;101569.69;7391280;19;20027;-88
2023/01/26 12:06:39;;;;;;;3.78;1.42;;;;;;;21.94;48.17;101561.31;7393476;19;20021;-88
2023/01/26 12:09:32;;;;;;;3.03;1.08;;;;;;;22.17;47.68;101557.22;7391307;19;20014;-89
2023/01/26 12:12:14;;;;;;;8.57;2.05;;;;;;;20.67;51.98;101572.84;7391852;19;20022;-89
2023/01/26 12:14:49;;;;;;;1.17;1.02;;;;;;;21.84;49.53;101571.38;7393127;19;20099;-88
2023/01/26 12:17:16;;;;;;;2.75;0.95;;;;;;;21.89;49.24;101574.19;7395103;19;20044;-88
2023/01/26 12:20:19;;;;;;;0.45;0.40;;;;;;;22.04;49.14;101559.03;7393557;19;20010;-88
2023/01/26 12:22:53;;;;;;;1.58;0.80;;;;;;;21.89;48.88;101553.59;7402494;19;20476;-88
2023/01/26 12:25:33;;;;;;;4.38;1.08;;;;;;;22.04;48.64;101545.63;7400359;19;20015;-88
2023/01/26 12:28:02;;;;;;;0.50;0.43;;;;;;;22.20;48.39;101542.00;7400166;19;20472;-90
2023/01/26 12:30:45;;;;;;;4.47;1.00;;;;;;;21.98;48.48;101541.22;7400326;19;20028;-89